sensor_id;sensor_type;location;lat;lon;timestamp;P1;P2;P0
72031;PMS5003;49185;42.320;23.198;2022-08-18T00:01:26;16.67;15.00;7.00
72031;PMS5003;49185;42.320;23.198;2022-08-18T00:03:52;14.00;13.00;7.00
72031;PMS5003;49185;42.320;23.198;2022-08-18T00:06:17;13.00;12.00;7.00
72031;PMS5003;49185;42.320;23.198;2022-08-18T00:08:43;13.00;13.00;7.00
72031;PMS5003;49185;42.320;23.198;2022-08-18T00:11:08;12.67;12.67;5.33
72031;PMS5003;49185;42.320;23.198;2022-08-18T00:13:34;14.00;13.00;6.00
72031;PMS5003;49185;42.320;23.198;2022-08-18T00:16:00;14.75;13.50;6.00
72031;PMS5003;49185;42.320;23.198;2022-08-18T00:18:26;12.00;12.00;7.00
72031;PMS5003;49185;42.320;23.198;2022-08-18T00:20:51;13.00;13.00;7.00
72031;PMS5003;49185;42.320;23.198;2022-08-18T00:23:17;16.00;16.00;7.00
72031;PMS5003;49185;42.320;23.198;2022-08-18T00:25:43;16.00;15.00;8.00
72031;PMS5003;49185;42.320;23.198;2022-08-18T00:28:08;15.00;15.00;6.33
72031;PMS5003;49185;42.320;23.198;2022-08-18T00:30:34;16.00;16.00;6.00
72031;PMS5003;49185;42.320;23.198;2022-08-18T00:33:00;16.00;15.00;7.00
72031;PMS5003;49185;42.320;23.198;2022-08-18T00:37:53;16.00;14.00;7.00
72031;PMS5003;49185;42.320;23.198;2022-08-18T00:40:23;13.00;12.25;6.75
72031;PMS5003;49185;42.320;23.198;2022-08-18T00:42:52;15.50;14.00;7.00
72031;PMS5003;49185;42.320;23.198;2022-08-18T00:45:24;16.50;14.00;6.00
72031;PMS5003;49185;42.320;23.198;2022-08-18T00:47:52;16.75;14.75;7.75
72031;PMS5003;49185;42.320;23.198;2022-08-18T00:50:23;17.00;15.00;6.50
72031;PMS5003;49185;42.320;23.198;2022-08-18T00:53:01;18.25;16.00;6.00
72031;PMS5003;49185;42.320;23.198;2022-08-18T00:55:36;19.00;17.00;7.00
72031;PMS5003;49185;42.320;23.198;2022-08-18T00:58:06;19.00;16.25;7.50
72031;PMS5003;49185;42.320;23.198;2022-08-18T01:00:34;20.00;15.00;7.00
72031;PMS5003;49185;42.320;23.198;2022-08-18T01:03:01;17.00;14.00;7.00
72031;PMS5003;49185;42.320;23.198;2022-08-18T01:05:33;17.00;14.00;8.00
72031;PMS5003;49185;42.320;23.198;2022-08-18T01:08:01;16.50;14.00;7.50
72031;PMS5003;49185;42.320;23.198;2022-08-18T01:10:27;17.50;14.75;7.00
72031;PMS5003;49185;42.320;23.198;2022-08-18T01:12:57;18.00;16.00;7.00
72031;PMS5003;49185;42.320;23.198;2022-08-18T01:15:23;17.00;16.00;8.00
72031;PMS5003;49185;42.320;23.198;2022-08-18T01:17:51;17.00;16.00;8.00
72031;PMS5003;49185;42.320;23.198;2022-08-18T01:20:17;16.00;15.00;6.00
72031;PMS5003;49185;42.320;23.198;2022-08-18T01:23:08;16.50;15.25;7.25
72031;PMS5003;49185;42.320;23.198;2022-08-18T01:25:39;18.00;17.00;8.00
72031;PMS5003;49185;42.320;23.198;2022-08-18T01:28:05;20.00;17.00;8.00
72031;PMS5003;49185;42.320;23.198;2022-08-18T01:30:32;18.00;17.00;7.00
72031;PMS5003;49185;42.320;23.198;2022-08-18T01:33:10;20.25;18.25;8.00
72031;PMS5003;49185;42.320;23.198;2022-08-18T01:35:35;18.67;17.33;8.33
72031;PMS5003;49185;42.320;23.198;2022-08-18T01:38:01;18.00;17.00;8.00
72031;PMS5003;49185;42.320;23.198;2022-08-18T01:40:26;17.33;17.33;8.33
72031;PMS5003;49185;42.320;23.198;2022-08-18T01:42:52;17.33;16.00;8.00
72031;PMS5003;49185;42.320;23.198;2022-08-18T01:45:17;21.00;18.00;8.00
72031;PMS5003;49185;42.320;23.198;2022-08-18T01:47:43;20.00;17.00;8.00
72031;PMS5003;49185;42.320;23.198;2022-08-18T01:50:09;20.00;18.00;9.00
72031;PMS5003;49185;42.320;23.198;2022-08-18T01:52:34;19.33;18.00;8.67
72031;PMS5003;49185;42.320;23.198;2022-08-18T01:55:00;18.67;17.00;8.33
72031;PMS5003;49185;42.320;23.198;2022-08-18T01:57:27;18.00;17.00;8.00
72031;PMS5003;49185;42.320;23.198;2022-08-18T01:59:52;16.25;15.50;8.00
72031;PMS5003;49185;42.320;23.198;2022-08-18T02:02:22;18.25;17.00;8.00
72031;PMS5003;49185;42.320;23.198;2022-08-18T02:04:51;17.00;17.00;8.00
72031;PMS5003;49185;42.320;23.198;2022-08-18T02:07:23;18.00;17.00;9.00
72031;PMS5003;49185;42.320;23.198;2022-08-18T02:09:48;17.67;17.00;9.67
72031;PMS5003;49185;42.320;23.198;2022-08-18T02:12:13;17.00;16.67;8.00
72031;PMS5003;49185;42.320;23.198;2022-08-18T02:14:39;18.67;18.00;9.00
72031;PMS5003;49185;42.320;23.198;2022-08-18T02:17:05;17.00;17.00;9.00
72031;PMS5003;49185;42.320;23.198;2022-08-18T02:19:34;19.25;18.25;10.00
72031;PMS5003;49185;42.320;23.198;2022-08-18T02:22:02;19.00;19.00;11.25
72031;PMS5003;49185;42.320;23.198;2022-08-18T02:24:28;19.00;19.00;12.00
72031;PMS5003;49185;42.320;23.198;2022-08-18T02:26:54;19.00;19.00;10.00
72031;PMS5003;49185;42.320;23.198;2022-08-18T02:29:19;17.67;17.67;9.00
72031;PMS5003;49185;42.320;23.198;2022-08-18T02:31:46;17.00;16.50;8.00
72031;PMS5003;49185;42.320;23.198;2022-08-18T02:34:11;17.00;16.00;7.00
72031;PMS5003;49185;42.320;23.198;2022-08-18T02:36:37;17.00;17.00;8.00
72031;PMS5003;49185;42.320;23.198;2022-08-18T02:39:02;17.67;17.67;8.33
72031;PMS5003;49185;42.320;23.198;2022-08-18T02:41:28;21.00;19.33;9.67
72031;PMS5003;49185;42.320;23.198;2022-08-18T02:43:53;19.67;18.67;10.00
72031;PMS5003;49185;42.320;23.198;2022-08-18T02:46:19;20.00;19.00;9.00
72031;PMS5003;49185;42.320;23.198;2022-08-18T02:48:44;18.33;18.33;9.33
72031;PMS5003;49185;42.320;23.198;2022-08-18T02:51:11;17.33;16.00;6.00
72031;PMS5003;49185;42.320;23.198;2022-08-18T02:53:40;17.00;15.00;7.00
72031;PMS5003;49185;42.320;23.198;2022-08-18T02:56:11;17.50;15.50;7.00
72031;PMS5003;49185;42.320;23.198;2022-08-18T02:58:38;16.25;14.50;6.75
72031;PMS5003;49185;42.320;23.198;2022-08-18T03:01:04;18.00;16.00;6.00
72031;PMS5003;49185;42.320;23.198;2022-08-18T03:03:29;19.00;16.00;8.33
72031;PMS5003;49185;42.320;23.198;2022-08-18T03:05:55;18.25;16.00;8.50
72031;PMS5003;49185;42.320;23.198;2022-08-18T03:08:20;19.33;17.67;10.00
72031;PMS5003;49185;42.320;23.198;2022-08-18T03:10:49;20.00;18.67;9.00
72031;PMS5003;49185;42.320;23.198;2022-08-18T03:13:16;19.00;18.50;8.00
72031;PMS5003;49185;42.320;23.198;2022-08-18T03:15:41;19.00;18.00;9.00
72031;PMS5003;49185;42.320;23.198;2022-08-18T03:18:07;19.00;19.00;9.00
72031;PMS5003;49185;42.320;23.198;2022-08-18T03:20:32;19.00;19.00;10.00
72031;PMS5003;49185;42.320;23.198;2022-08-18T03:23:01;20.00;19.00;9.50
72031;PMS5003;49185;42.320;23.198;2022-08-18T03:25:27;20.50;19.75;10.25
72031;PMS5003;49185;42.320;23.198;2022-08-18T03:27:52;20.00;20.00;9.00
72031;PMS5003;49185;42.320;23.198;2022-08-18T03:30:18;18.00;18.00;8.00
72031;PMS5003;49185;42.320;23.198;2022-08-18T03:32:43;18.00;18.00;7.00
72031;PMS5003;49185;42.320;23.198;2022-08-18T03:35:09;20.00;19.33;8.33
72031;PMS5003;49185;42.320;23.198;2022-08-18T03:37:34;18.33;18.00;7.00
72031;PMS5003;49185;42.320;23.198;2022-08-18T03:40:00;19.00;19.00;7.67
72031;PMS5003;49185;42.320;23.198;2022-08-18T03:42:25;20.67;20.00;7.00
72031;PMS5003;49185;42.320;23.198;2022-08-18T03:44:51;20.00;18.00;8.00
72031;PMS5003;49185;42.320;23.198;2022-08-18T03:47:16;19.00;18.67;7.00
72031;PMS5003;49185;42.320;23.198;2022-08-18T03:49:41;18.33;18.33;8.33
72031;PMS5003;49185;42.320;23.198;2022-08-18T03:52:08;19.67;18.00;9.33
72031;PMS5003;49185;42.320;23.198;2022-08-18T03:54:34;24.25;21.50;13.50
72031;PMS5003;49185;42.320;23.198;2022-08-18T03:56:59;23.33;23.33;13.33
72031;PMS5003;49185;42.320;23.198;2022-08-18T03:59:25;20.67;19.67;11.00
72031;PMS5003;49185;42.320;23.198;2022-08-18T04:01:52;19.25;18.50;9.50
72031;PMS5003;49185;42.320;23.198;2022-08-18T04:04:19;20.00;19.00;9.50
72031;PMS5003;49185;42.320;23.198;2022-08-18T04:06:48;21.00;18.00;9.00
72031;PMS5003;49185;42.320;23.198;2022-08-18T04:09:16;20.00;19.25;8.50
72031;PMS5003;49185;42.320;23.198;2022-08-18T04:11:42;21.00;20.00;8.00
72031;PMS5003;49185;42.320;23.198;2022-08-18T04:14:10;20.50;20.00;10.00
72031;PMS5003;49185;42.320;23.198;2022-08-18T04:16:36;18.50;18.25;9.50
72031;PMS5003;49185;42.320;23.198;2022-08-18T04:19:02;17.00;17.00;8.00
72031;PMS5003;49185;42.320;23.198;2022-08-18T04:21:30;18.00;17.50;8.75
72031;PMS5003;49185;42.320;23.198;2022-08-18T04:23:57;20.25;19.25;11.50
72031;PMS5003;49185;42.320;23.198;2022-08-18T04:26:23;20.00;19.00;11.00
72031;PMS5003;49185;42.320;23.198;2022-08-18T04:28:48;17.00;16.00;8.00
72031;PMS5003;49185;42.320;23.198;2022-08-18T04:31:14;16.00;15.67;9.00
72031;PMS5003;49185;42.320;23.198;2022-08-18T04:33:40;18.00;18.00;9.00
72031;PMS5003;49185;42.320;23.198;2022-08-18T04:36:07;18.00;17.00;8.00
72031;PMS5003;49185;42.320;23.198;2022-08-18T04:38:34;18.00;18.00;8.00
72031;PMS5003;49185;42.320;23.198;2022-08-18T04:41:00;20.00;18.33;11.33
72031;PMS5003;49185;42.320;23.198;2022-08-18T04:43:25;23.00;20.00;10.00
72031;PMS5003;49185;42.320;23.198;2022-08-18T04:45:51;22.00;20.00;12.67
72031;PMS5003;49185;42.320;23.198;2022-08-18T04:48:16;21.00;20.00;12.00
72031;PMS5003;49185;42.320;23.198;2022-08-18T04:50:42;20.00;20.00;9.00
72031;PMS5003;49185;42.320;23.198;2022-08-18T04:53:07;21.00;21.00;9.00
72031;PMS5003;49185;42.320;23.198;2022-08-18T04:55:33;19.50;19.50;9.00
72031;PMS5003;49185;42.320;23.198;2022-08-18T04:57:59;20.00;20.00;9.00
72031;PMS5003;49185;42.320;23.198;2022-08-18T05:00:24;18.00;18.00;9.00
72031;PMS5003;49185;42.320;23.198;2022-08-18T05:02:50;19.67;18.00;8.00
72031;PMS5003;49185;42.320;23.198;2022-08-18T05:05:15;19.00;18.00;6.00
72031;PMS5003;49185;42.320;23.198;2022-08-18T05:07:44;17.67;17.67;7.00
72031;PMS5003;49185;42.320;23.198;2022-08-18T05:10:10;15.50;15.50;6.00
72031;PMS5003;49185;42.320;23.198;2022-08-18T05:12:37;17.00;16.00;7.00
72031;PMS5003;49185;42.320;23.198;2022-08-18T05:15:03;15.00;15.00;6.00
72031;PMS5003;49185;42.320;23.198;2022-08-18T05:17:29;15.00;14.00;8.00
72031;PMS5003;49185;42.320;23.198;2022-08-18T05:19:54;13.00;12.00;7.00
72031;PMS5003;49185;42.320;23.198;2022-08-18T05:22:20;13.00;13.00;6.00
72031;PMS5003;49185;42.320;23.198;2022-08-18T05:24:45;14.33;13.67;7.67
72031;PMS5003;49185;42.320;23.198;2022-08-18T05:27:12;15.00;13.00;7.50
72031;PMS5003;49185;42.320;23.198;2022-08-18T05:29:37;16.50;15.50;7.00
72031;PMS5003;49185;42.320;23.198;2022-08-18T05:32:03;14.00;12.00;6.00
72031;PMS5003;49185;42.320;23.198;2022-08-18T05:34:29;18.25;16.50;8.75
72031;PMS5003;49185;42.320;23.198;2022-08-18T05:37:00;17.00;17.00;9.00
72031;PMS5003;49185;42.320;23.198;2022-08-18T05:39:44;18.50;18.50;10.00
72031;PMS5003;49185;42.320;23.198;2022-08-18T05:42:21;19.25;19.00;8.50
72031;PMS5003;49185;42.320;23.198;2022-08-18T05:44:49;18.00;16.75;9.00
72031;PMS5003;49185;42.320;23.198;2022-08-18T05:47:16;18.50;18.00;8.00
72031;PMS5003;49185;42.320;23.198;2022-08-18T05:49:55;16.75;16.00;7.00
72031;PMS5003;49185;42.320;23.198;2022-08-18T05:52:31;17.25;17.00;6.00
72031;PMS5003;49185;42.320;23.198;2022-08-18T05:55:16;18.50;16.50;7.00
72031;PMS5003;49185;42.320;23.198;2022-08-18T05:58:07;16.00;15.75;7.00
72031;PMS5003;49185;42.320;23.198;2022-08-18T06:00:39;16.00;16.00;6.00
72031;PMS5003;49185;42.320;23.198;2022-08-18T06:03:15;13.00;12.00;6.00
72031;PMS5003;49185;42.320;23.198;2022-08-18T06:05:58;13.00;13.00;6.00
72031;PMS5003;49185;42.320;23.198;2022-08-18T06:08:28;14.00;12.00;6.00
72031;PMS5003;49185;42.320;23.198;2022-08-18T06:11:00;14.00;12.00;6.50
72031;PMS5003;49185;42.320;23.198;2022-08-18T06:13:26;12.67;11.67;6.00
72031;PMS5003;49185;42.320;23.198;2022-08-18T06:16:07;13.00;12.00;5.00
72031;PMS5003;49185;42.320;23.198;2022-08-18T06:18:46;13.00;13.00;6.00
72031;PMS5003;49185;42.320;23.198;2022-08-18T06:32:13;14.00;13.25;6.00
72031;PMS5003;49185;42.320;23.198;2022-08-18T06:40:55;17.00;17.00;11.00
72031;PMS5003;49185;42.320;23.198;2022-08-18T06:43:25;15.25;15.25;8.75
72031;PMS5003;49185;42.320;23.198;2022-08-18T06:45:52;13.00;13.00;6.00
72031;PMS5003;49185;42.320;23.198;2022-08-18T06:50:59;13.00;12.00;7.00
72031;PMS5003;49185;42.320;23.198;2022-08-18T06:56:31;15.25;13.75;7.75
72031;PMS5003;49185;42.320;23.198;2022-08-18T07:02:08;12.00;10.75;6.00
72031;PMS5003;49185;42.320;23.198;2022-08-18T07:05:02;10.25;10.25;5.50
72031;PMS5003;49185;42.320;23.198;2022-08-18T07:07:33;13.00;12.75;7.25
72031;PMS5003;49185;42.320;23.198;2022-08-18T07:10:04;16.00;15.00;7.75
72031;PMS5003;49185;42.320;23.198;2022-08-18T07:12:51;18.00;17.00;9.50
72031;PMS5003;49185;42.320;23.198;2022-08-18T07:15:29;19.50;17.00;9.00
72031;PMS5003;49185;42.320;23.198;2022-08-18T07:18:01;17.00;15.00;8.00
72031;PMS5003;49185;42.320;23.198;2022-08-18T07:20:28;15.00;13.00;6.00
72031;PMS5003;49185;42.320;23.198;2022-08-18T07:25:29;14.00;11.75;6.00
72031;PMS5003;49185;42.320;23.198;2022-08-18T07:27:57;14.00;12.00;6.75
72031;PMS5003;49185;42.320;23.198;2022-08-18T07:30:24;15.67;14.67;7.67
72031;PMS5003;49185;42.320;23.198;2022-08-18T07:35:27;16.00;16.00;7.00
72031;PMS5003;49185;42.320;23.198;2022-08-18T07:40:35;17.00;15.00;8.00
72031;PMS5003;49185;42.320;23.198;2022-08-18T07:43:07;15.00;13.00;6.50
72031;PMS5003;49185;42.320;23.198;2022-08-18T07:45:44;14.75;13.25;7.25
72031;PMS5003;49185;42.320;23.198;2022-08-18T07:50:53;17.00;15.00;6.50
72031;PMS5003;49185;42.320;23.198;2022-08-18T07:53:49;15.00;12.00;8.00
72031;PMS5003;49185;42.320;23.198;2022-08-18T08:05:19;15.00;14.00;7.00
72031;PMS5003;49185;42.320;23.198;2022-08-18T08:10:38;13.75;12.75;7.00
72031;PMS5003;49185;42.320;23.198;2022-08-18T08:21:22;15.00;12.00;7.00
72031;PMS5003;49185;42.320;23.198;2022-08-18T08:29:39;17.00;14.25;8.00
72031;PMS5003;49185;42.320;23.198;2022-08-18T08:32:11;16.00;16.00;9.00
72031;PMS5003;49185;42.320;23.198;2022-08-18T08:34:51;17.00;15.50;8.25
72031;PMS5003;49185;42.320;23.198;2022-08-18T08:37:26;18.75;18.00;9.00
72031;PMS5003;49185;42.320;23.198;2022-08-18T08:40:05;17.00;17.00;8.00
72031;PMS5003;49185;42.320;23.198;2022-08-18T08:45:33;17.25;16.50;9.25
72031;PMS5003;49185;42.320;23.198;2022-08-18T08:50:38;19.00;18.00;11.25
72031;PMS5003;49185;42.320;23.198;2022-08-18T08:53:26;16.67;16.67;10.00
72031;PMS5003;49185;42.320;23.198;2022-08-18T08:55:58;16.50;16.50;11.75
72031;PMS5003;49185;42.320;23.198;2022-08-18T09:00:59;15.25;15.25;9.00
72031;PMS5003;49185;42.320;23.198;2022-08-18T09:09:03;16.00;16.00;9.00
72031;PMS5003;49185;42.320;23.198;2022-08-18T09:14:25;18.00;18.00;7.50
72031;PMS5003;49185;42.320;23.198;2022-08-18T09:17:33;17.50;17.50;9.25
72031;PMS5003;49185;42.320;23.198;2022-08-18T09:23:03;19.00;17.00;9.00
72031;PMS5003;49185;42.320;23.198;2022-08-18T09:33:46;13.75;13.75;6.00
72031;PMS5003;49185;42.320;23.198;2022-08-18T09:39:35;11.50;11.50;7.25
72031;PMS5003;49185;42.320;23.198;2022-08-18T09:45:56;14.50;13.50;7.00
72031;PMS5003;49185;42.320;23.198;2022-08-18T09:48:24;16.00;15.00;7.00
72031;PMS5003;49185;42.320;23.198;2022-08-18T09:50:56;15.00;14.00;5.75
72031;PMS5003;49185;42.320;23.198;2022-08-18T09:56:11;12.00;10.25;6.00
72031;PMS5003;49185;42.320;23.198;2022-08-18T09:58:48;11.00;10.00;6.00
72031;PMS5003;49185;42.320;23.198;2022-08-18T10:01:17;10.00;10.00;5.75
72031;PMS5003;49185;42.320;23.198;2022-08-18T10:04:14;10.75;10.75;6.00
72031;PMS5003;49185;42.320;23.198;2022-08-18T10:06:39;10.25;10.00;6.00
72031;PMS5003;49185;42.320;23.198;2022-08-18T10:14:43;15.50;13.50;8.25
72031;PMS5003;49185;42.320;23.198;2022-08-18T10:22:51;13.00;12.50;7.00
72031;PMS5003;49185;42.320;23.198;2022-08-18T10:31:17;16.00;14.00;7.00
72031;PMS5003;49185;42.320;23.198;2022-08-18T10:33:59;16.33;13.00;7.00
72031;PMS5003;49185;42.320;23.198;2022-08-18T10:36:32;15.00;15.00;8.75
72031;PMS5003;49185;42.320;23.198;2022-08-18T10:39:02;15.00;14.00;7.00
72031;PMS5003;49185;42.320;23.198;2022-08-18T10:41:30;17.00;16.00;9.00
72031;PMS5003;49185;42.320;23.198;2022-08-18T10:43:57;17.00;17.00;9.00
72031;PMS5003;49185;42.320;23.198;2022-08-18T10:46:26;17.00;16.00;8.00
72031;PMS5003;49185;42.320;23.198;2022-08-18T10:48:58;18.50;18.50;11.50
72031;PMS5003;49185;42.320;23.198;2022-08-18T10:56:54;19.00;19.00;12.00
72031;PMS5003;49185;42.320;23.198;2022-08-18T10:59:37;18.50;18.50;11.00
72031;PMS5003;49185;42.320;23.198;2022-08-18T11:04:55;19.75;19.25;11.75
72031;PMS5003;49185;42.320;23.198;2022-08-18T11:07:23;29.00;28.50;21.00
72031;PMS5003;49185;42.320;23.198;2022-08-18T11:09:51;22.75;22.75;17.00
72031;PMS5003;49185;42.320;23.198;2022-08-18T11:15:13;18.50;18.50;14.00
72031;PMS5003;49185;42.320;23.198;2022-08-18T11:17:48;17.50;17.50;12.00
72031;PMS5003;49185;42.320;23.198;2022-08-18T11:20:17;18.50;18.50;11.00
72031;PMS5003;49185;42.320;23.198;2022-08-18T11:22:55;20.00;19.50;11.00
72031;PMS5003;49185;42.320;23.198;2022-08-18T11:25:32;18.00;17.50;10.00
72031;PMS5003;49185;42.320;23.198;2022-08-18T11:28:00;19.00;16.00;9.00
72031;PMS5003;49185;42.320;23.198;2022-08-18T11:30:31;20.00;16.25;9.25
72031;PMS5003;49185;42.320;23.198;2022-08-18T11:33:01;20.25;18.50;13.00
72031;PMS5003;49185;42.320;23.198;2022-08-18T11:35:43;20.50;20.00;14.00
72031;PMS5003;49185;42.320;23.198;2022-08-18T11:38:12;20.00;18.75;13.00
72031;PMS5003;49185;42.320;23.198;2022-08-18T11:40:42;18.00;18.00;11.00
72031;PMS5003;49185;42.320;23.198;2022-08-18T11:43:18;18.25;18.00;10.00
72031;PMS5003;49185;42.320;23.198;2022-08-18T11:46:11;17.75;16.00;10.00
72031;PMS5003;49185;42.320;23.198;2022-08-18T11:48:47;17.25;17.00;9.00
72031;PMS5003;49185;42.320;23.198;2022-08-18T11:53:41;17.00;17.00;12.00
72031;PMS5003;49185;42.320;23.198;2022-08-18T12:03:54;17.00;17.00;8.00
72031;PMS5003;49185;42.320;23.198;2022-08-18T12:06:26;14.00;14.00;8.00
72031;PMS5003;49185;42.320;23.198;2022-08-18T12:11:50;29.50;28.50;19.00
72031;PMS5003;49185;42.320;23.198;2022-08-18T12:14:22;18.75;18.75;13.50
72031;PMS5003;49185;42.320;23.198;2022-08-18T12:16:49;9.25;9.25;4.00
72031;PMS5003;49185;42.320;23.198;2022-08-18T12:19:15;8.00;7.00;4.00
72031;PMS5003;49185;42.320;23.198;2022-08-18T12:21:45;9.25;9.25;5.50
72031;PMS5003;49185;42.320;23.198;2022-08-18T12:26:53;8.00;8.00;4.00
72031;PMS5003;49185;42.320;23.198;2022-08-18T12:29:20;6.50;6.50;3.00
72031;PMS5003;49185;42.320;23.198;2022-08-18T12:31:47;5.25;5.25;2.25
72031;PMS5003;49185;42.320;23.198;2022-08-18T12:34:15;6.25;6.25;4.00
72031;PMS5003;49185;42.320;23.198;2022-08-18T12:36:42;11.00;11.00;8.00
72031;PMS5003;49185;42.320;23.198;2022-08-18T12:39:07;15.00;15.00;8.00
72031;PMS5003;49185;42.320;23.198;2022-08-18T12:41:33;15.00;15.00;6.00
72031;PMS5003;49185;42.320;23.198;2022-08-18T12:43:58;11.00;10.00;5.00
72031;PMS5003;49185;42.320;23.198;2022-08-18T12:46:24;10.00;9.00;5.67
72031;PMS5003;49185;42.320;23.198;2022-08-18T12:48:50;16.75;16.50;10.00
72031;PMS5003;49185;42.320;23.198;2022-08-18T12:51:15;18.00;18.00;10.00
72031;PMS5003;49185;42.320;23.198;2022-08-18T12:53:41;15.00;14.00;7.33
72031;PMS5003;49185;42.320;23.198;2022-08-18T12:56:07;11.00;10.00;5.00
72031;PMS5003;49185;42.320;23.198;2022-08-18T13:05:31;7.75;7.50;3.25
72031;PMS5003;49185;42.320;23.198;2022-08-18T13:08:00;9.00;8.50;5.50
72031;PMS5003;49185;42.320;23.198;2022-08-18T13:10:27;12.00;11.25;5.50
72031;PMS5003;49185;42.320;23.198;2022-08-18T13:12:53;9.33;8.00;6.00
72031;PMS5003;49185;42.320;23.198;2022-08-18T13:15:18;10.33;9.00;5.00
72031;PMS5003;49185;42.320;23.198;2022-08-18T13:17:44;9.00;8.00;4.33
72031;PMS5003;49185;42.320;23.198;2022-08-18T13:20:10;8.33;8.33;5.00
72031;PMS5003;49185;42.320;23.198;2022-08-18T13:22:37;13.75;12.00;6.50
72031;PMS5003;49185;42.320;23.198;2022-08-18T13:25:03;10.00;9.67;5.00
72031;PMS5003;49185;42.320;23.198;2022-08-18T13:27:29;8.00;8.00;3.00
72031;PMS5003;49185;42.320;23.198;2022-08-18T13:29:54;7.33;7.33;3.00
72031;PMS5003;49185;42.320;23.198;2022-08-18T13:32:20;9.00;9.00;4.00
72031;PMS5003;49185;42.320;23.198;2022-08-18T13:34:45;7.00;7.00;3.33
72031;PMS5003;49185;42.320;23.198;2022-08-18T13:37:11;7.00;6.67;4.00
72031;PMS5003;49185;42.320;23.198;2022-08-18T13:39:36;6.00;6.00;3.00
72031;PMS5003;49185;42.320;23.198;2022-08-18T13:42:02;7.67;7.67;3.00
72031;PMS5003;49185;42.320;23.198;2022-08-18T13:44:28;8.00;8.00;4.00
72031;PMS5003;49185;42.320;23.198;2022-08-18T13:46:53;8.00;8.00;3.00
72031;PMS5003;49185;42.320;23.198;2022-08-18T13:49:19;7.00;6.00;3.00
72031;PMS5003;49185;42.320;23.198;2022-08-18T13:51:46;8.00;7.25;3.25
72031;PMS5003;49185;42.320;23.198;2022-08-18T13:54:23;6.00;6.00;4.00
72031;PMS5003;49185;42.320;23.198;2022-08-18T13:56:51;8.00;8.00;4.00
72031;PMS5003;49185;42.320;23.198;2022-08-18T13:59:17;6.00;5.50;3.00
72031;PMS5003;49185;42.320;23.198;2022-08-18T14:01:42;7.00;7.00;3.00
72031;PMS5003;49185;42.320;23.198;2022-08-18T14:04:08;8.00;8.00;3.00
72031;PMS5003;49185;42.320;23.198;2022-08-18T14:06:34;6.00;6.00;4.00
72031;PMS5003;49185;42.320;23.198;2022-08-18T14:08:59;8.67;8.67;6.00
72031;PMS5003;49185;42.320;23.198;2022-08-18T14:11:26;6.33;6.33;4.00
72031;PMS5003;49185;42.320;23.198;2022-08-18T14:13:54;7.00;7.00;3.00
72031;PMS5003;49185;42.320;23.198;2022-08-18T14:16:20;7.00;7.00;4.00
72031;PMS5003;49185;42.320;23.198;2022-08-18T14:18:47;7.50;7.50;4.50
72031;PMS5003;49185;42.320;23.198;2022-08-18T14:21:12;8.67;8.00;4.00
72031;PMS5003;49185;42.320;23.198;2022-08-18T14:23:38;9.00;9.00;4.00
72031;PMS5003;49185;42.320;23.198;2022-08-18T14:26:03;6.33;6.33;4.00
72031;PMS5003;49185;42.320;23.198;2022-08-18T14:28:30;8.00;8.00;4.00
72031;PMS5003;49185;42.320;23.198;2022-08-18T14:30:57;7.00;7.00;3.00
72031;PMS5003;49185;42.320;23.198;2022-08-18T14:33:25;7.00;7.00;2.00
72031;PMS5003;49185;42.320;23.198;2022-08-18T14:35:52;7.00;7.00;3.00
72031;PMS5003;49185;42.320;23.198;2022-08-18T14:38:17;6.33;6.00;4.00
72031;PMS5003;49185;42.320;23.198;2022-08-18T14:40:44;8.00;7.75;5.00
72031;PMS5003;49185;42.320;23.198;2022-08-18T14:43:11;6.50;6.50;5.00
72031;PMS5003;49185;42.320;23.198;2022-08-18T14:45:39;8.50;7.25;5.00
72031;PMS5003;49185;42.320;23.198;2022-08-18T14:48:05;7.33;6.00;5.00
72031;PMS5003;49185;42.320;23.198;2022-08-18T14:50:31;7.50;6.00;3.50
72031;PMS5003;49185;42.320;23.198;2022-08-18T14:52:56;8.00;8.00;5.00
72031;PMS5003;49185;42.320;23.198;2022-08-18T14:55:22;8.00;8.00;5.00
72031;PMS5003;49185;42.320;23.198;2022-08-18T14:57:48;8.00;7.75;4.00
72031;PMS5003;49185;42.320;23.198;2022-08-18T15:00:15;8.00;8.00;5.00
72031;PMS5003;49185;42.320;23.198;2022-08-18T15:02:45;7.00;7.00;5.00
72031;PMS5003;49185;42.320;23.198;2022-08-18T15:05:11;7.50;7.50;4.00
72031;PMS5003;49185;42.320;23.198;2022-08-18T15:07:38;7.00;7.00;3.50
72031;PMS5003;49185;42.320;23.198;2022-08-18T15:10:05;7.00;7.00;3.00
72031;PMS5003;49185;42.320;23.198;2022-08-18T15:12:32;8.25;7.00;5.00
72031;PMS5003;49185;42.320;23.198;2022-08-18T15:14:57;7.00;7.00;4.00
72031;PMS5003;49185;42.320;23.198;2022-08-18T15:17:23;8.00;8.00;5.00
72031;PMS5003;49185;42.320;23.198;2022-08-18T15:19:48;6.00;6.00;4.00
72031;PMS5003;49185;42.320;23.198;2022-08-18T15:22:13;7.00;6.00;4.00
72031;PMS5003;49185;42.320;23.198;2022-08-18T15:24:40;9.00;9.00;4.00
72031;PMS5003;49185;42.320;23.198;2022-08-18T15:27:06;8.00;8.00;4.00
72031;PMS5003;49185;42.320;23.198;2022-08-18T15:29:32;8.00;8.00;4.00
72031;PMS5003;49185;42.320;23.198;2022-08-18T15:31:58;9.00;7.75;4.00
72031;PMS5003;49185;42.320;23.198;2022-08-18T15:34:24;9.67;8.67;4.67
72031;PMS5003;49185;42.320;23.198;2022-08-18T15:36:49;12.00;9.00;5.00
72031;PMS5003;49185;42.320;23.198;2022-08-18T15:39:15;10.00;9.00;4.00
72031;PMS5003;49185;42.320;23.198;2022-08-18T15:41:42;13.00;10.00;5.00
72031;PMS5003;49185;42.320;23.198;2022-08-18T15:44:09;8.50;7.75;4.00
72031;PMS5003;49185;42.320;23.198;2022-08-18T15:46:35;8.00;8.00;5.00
72031;PMS5003;49185;42.320;23.198;2022-08-18T15:49:02;9.25;8.25;4.25
72031;PMS5003;49185;42.320;23.198;2022-08-18T15:51:28;11.00;10.00;6.00
72031;PMS5003;49185;42.320;23.198;2022-08-18T15:53:54;8.00;8.00;6.00
72031;PMS5003;49185;42.320;23.198;2022-08-18T15:56:20;9.33;9.00;6.00
72031;PMS5003;49185;42.320;23.198;2022-08-18T15:58:48;8.50;7.75;5.00
72031;PMS5003;49185;42.320;23.198;2022-08-18T16:01:14;9.00;9.00;5.00
72031;PMS5003;49185;42.320;23.198;2022-08-18T16:03:41;9.00;8.00;6.00
72031;PMS5003;49185;42.320;23.198;2022-08-18T16:06:06;10.00;8.00;4.00
72031;PMS5003;49185;42.320;23.198;2022-08-18T16:08:41;9.75;9.75;6.75
72031;PMS5003;49185;42.320;23.198;2022-08-18T16:11:08;9.00;9.00;6.00
72031;PMS5003;49185;42.320;23.198;2022-08-18T16:13:35;10.00;9.00;5.00
72031;PMS5003;49185;42.320;23.198;2022-08-18T16:16:09;12.00;11.00;5.00
72031;PMS5003;49185;42.320;23.198;2022-08-18T16:18:39;10.50;9.00;5.00
72031;PMS5003;49185;42.320;23.198;2022-08-18T16:21:08;11.00;8.67;6.00
72031;PMS5003;49185;42.320;23.198;2022-08-18T16:23:42;11.00;9.00;6.00
72031;PMS5003;49185;42.320;23.198;2022-08-18T16:26:09;10.00;8.75;6.00
72031;PMS5003;49185;42.320;23.198;2022-08-18T16:28:35;8.00;8.00;5.00
72031;PMS5003;49185;42.320;23.198;2022-08-18T16:31:01;8.67;8.00;5.00